createdAt,value
2018-05-06T00:00:38.715Z,45.92
2018-05-06T00:01:38.683Z,47.86
2018-05-06T00:02:38.706Z,47.57
2018-05-06T00:03:38.696Z,48.05
2018-05-06T00:04:38.726Z,47.96
2018-05-06T00:05:38.600Z,50.77
2018-05-06T00:06:38.549Z,49.99
2018-05-06T00:07:38.550Z,49.99
2018-05-06T00:08:38.537Z,48.44
2018-05-06T00:09:38.497Z,48.35
2018-05-06T00:10:38.813Z,47.66
2018-05-06T00:11:38.719Z,46.98
2018-05-06T00:12:38.444Z,46.50
2018-05-06T00:13:38.388Z,45.82
2018-05-06T00:14:38.368Z,46.28
2018-05-06T00:15:38.343Z,46.67
2018-05-06T00:16:40.141Z,46.79
2018-05-06T00:17:38.560Z,45.70
2018-05-06T00:18:39.245Z,48.42
2018-05-06T00:19:38.270Z,48.52
2018-05-06T00:20:38.819Z,48.22
2018-05-06T00:21:38.816Z,46.41
2018-05-06T00:22:39.932Z,44.24
2018-05-06T00:23:38.941Z,45.12
2018-05-06T00:24:38.878Z,44.15
2018-05-06T00:25:38.877Z,42.89
2018-05-06T00:26:38.421Z,44.83
2018-05-06T00:27:38.500Z,45.02
2018-05-06T00:28:39.824Z,45.12
2018-05-06T00:29:38.741Z,44.83
2018-05-06T00:30:38.245Z,44.15
2018-05-06T00:31:38.121Z,44.05
2018-05-06T00:32:37.986Z,43.76
2018-05-06T00:33:38.434Z,43.76
2018-05-06T00:34:39.706Z,42.02
2018-05-06T00:35:38.395Z,41.82
2018-05-06T00:36:38.584Z,41.92
2018-05-06T00:37:38.405Z,42.11
2018-05-06T00:38:38.699Z,41.72
2018-05-06T00:39:37.754Z,41.53
2018-05-06T00:40:37.841Z,41.63
2018-05-06T00:41:37.702Z,40.56
2018-05-06T00:42:37.683Z,40.36
2018-05-06T00:43:37.629Z,41.14
2018-05-06T00:44:37.625Z,40.26
2018-05-06T00:45:37.587Z,39.69
2018-05-06T00:46:37.665Z,40.17
2018-05-06T00:47:37.540Z,41.53
2018-05-06T00:48:37.528Z,37.65
2018-05-06T00:49:37.497Z,39.29
2018-05-06T00:50:37.478Z,40.85
2018-05-06T00:51:37.462Z,40.85
2018-05-06T00:52:37.607Z,40.08
2018-05-06T00:53:37.409Z,39.39
2018-05-06T00:54:37.382Z,39.29
2018-05-06T00:55:37.366Z,38.91
2018-05-06T00:56:37.308Z,38.91
2018-05-06T00:57:37.285Z,37.74
2018-05-06T00:58:37.429Z,38.32
2018-05-06T00:59:37.248Z,37.74
2018-05-06T01:00:37.206Z,35.80
2018-05-06T01:01:37.185Z,36.10
2018-05-06T01:02:37.171Z,35.32
2018-05-06T01:03:37.297Z,34.64
2018-05-06T01:04:37.121Z,32.50
2018-05-06T01:05:37.080Z,32.49
2018-05-06T01:06:37.092Z,32.10
2018-05-06T01:07:37.089Z,30.76
2018-05-06T01:08:37.679Z,32.02
2018-05-06T01:09:36.987Z,32.49
2018-05-06T01:10:36.967Z,33.17
2018-05-06T01:11:36.942Z,32.41
2018-05-06T01:12:36.928Z,29.98
2018-05-06T01:13:36.978Z,31.15
2018-05-06T01:14:36.866Z,31.73
2018-05-06T01:15:36.842Z,31.63
2018-05-06T01:16:36.813Z,31.42
2018-05-06T01:17:36.799Z,32.12
2018-05-06T01:18:36.818Z,30.85
2018-05-06T01:19:36.881Z,32.89
2018-05-06T01:20:36.716Z,32.79
2018-05-06T01:21:36.695Z,30.95
2018-05-06T01:22:36.852Z,31.44
2018-05-06T01:23:36.740Z,32.50
2018-05-06T01:24:36.709Z,32.89
2018-05-06T01:25:36.585Z,33.86
2018-05-06T01:26:36.717Z,34.64
2018-05-06T01:27:36.555Z,34.83
2018-05-06T01:28:36.523Z,35.03
2018-05-06T01:29:36.484Z,35.13
2018-05-06T01:30:36.557Z,33.09
2018-05-06T01:31:36.435Z,35.03
2018-05-06T01:32:36.392Z,34.54
2018-05-06T01:33:36.378Z,33.76
2018-05-06T01:34:36.364Z,32.70
2018-05-06T01:35:36.355Z,34.35
2018-05-06T01:36:36.351Z,33.57
2018-05-06T01:37:36.284Z,34.54
2018-05-06T01:38:36.248Z,34.35
2018-05-06T01:39:36.221Z,33.96
2018-05-06T01:40:36.756Z,32.60
2018-05-06T01:41:36.323Z,32.60
2018-05-06T01:42:36.162Z,32.70
2018-05-06T01:43:36.141Z,32.79
2018-05-06T01:44:36.176Z,30.85
2018-05-06T01:45:36.102Z,31.63
2018-05-06T01:46:36.149Z,32.41
2018-05-06T01:47:36.127Z,31.05
2018-05-06T01:48:36.010Z,31.71
2018-05-06T01:49:36.700Z,31.05
2018-05-06T01:50:35.962Z,32.21
2018-05-06T01:51:35.974Z,32.59
2018-05-06T01:52:35.973Z,31.81
2018-05-06T01:53:35.866Z,31.34
2018-05-06T01:54:35.878Z,31.42
2018-05-06T01:55:35.812Z,30.84
2018-05-06T01:56:35.801Z,30.94
2018-05-06T01:57:35.903Z,29.87
2018-05-06T01:58:35.899Z,27.54
2018-05-06T01:59:35.718Z,27.15
2018-05-06T02:00:35.719Z,26.67
2018-05-06T02:01:35.741Z,24.83
2018-05-06T02:02:35.639Z,25.41
2018-05-06T02:03:35.724Z,24.34
2018-05-06T02:04:35.627Z,25.31
2018-05-06T02:05:35.595Z,25.70
2018-05-06T02:06:35.554Z,25.12
2018-05-06T02:07:35.517Z,24.54
2018-05-06T02:08:35.485Z,24.83
2018-05-06T02:09:35.569Z,24.34
2018-05-06T02:10:35.467Z,23.86
2018-05-06T02:11:35.442Z,24.24
2018-05-06T02:12:35.391Z,24.24
2018-05-06T02:13:35.366Z,24.15
2018-05-06T02:14:35.340Z,23.76
2018-05-06T02:15:35.418Z,23.47
2018-05-06T02:16:35.288Z,23.37
2018-05-06T02:17:35.263Z,24.24
2018-05-06T02:18:35.246Z,24.83
2018-05-06T02:19:35.208Z,24.83
2018-05-06T02:20:35.326Z,23.86
2018-05-06T02:21:35.228Z,21.62
2018-05-06T02:22:35.127Z,24.15
2018-05-06T02:23:35.099Z,23.47
2018-05-06T02:24:35.097Z,23.37
2018-05-06T02:25:35.098Z,23.37
2018-05-06T02:26:35.033Z,23.95
2018-05-06T02:27:34.995Z,24.63
2018-05-06T02:28:34.997Z,25.79
2018-05-06T02:29:34.961Z,26.09
2018-05-06T02:30:34.916Z,24.15
2018-05-06T02:31:35.001Z,25.42
2018-05-06T02:32:34.866Z,24.65
2018-05-06T02:33:34.852Z,27.06
2018-05-06T02:34:34.816Z,26.97
2018-05-06T02:35:35.221Z,29.40
2018-05-06T02:36:34.849Z,30.16
2018-05-06T02:37:34.749Z,30.16
2018-05-06T02:38:34.722Z,29.38
2018-05-06T02:39:34.707Z,30.08
2018-05-06T02:40:34.755Z,29.68
2018-05-06T02:41:34.776Z,31.23
2018-05-06T02:42:34.627Z,32.31
2018-05-06T02:43:34.597Z,30.84
2018-05-06T02:44:34.615Z,31.32
2018-05-06T02:45:34.529Z,31.73
2018-05-06T02:46:34.634Z,31.52
2018-05-06T02:47:34.505Z,30.84
2018-05-06T02:48:34.471Z,30.84
2018-05-06T02:49:34.457Z,31.42
2018-05-06T02:50:34.416Z,31.23
2018-05-06T02:51:34.366Z,30.94
2018-05-06T02:52:34.458Z,27.73
2018-05-06T02:53:34.903Z,29.87
2018-05-06T02:54:34.333Z,30.16
2018-05-06T02:55:34.324Z,30.16
2018-05-06T02:56:34.459Z,29.10
2018-05-06T02:57:34.351Z,28.61
2018-05-06T02:58:34.269Z,28.61
2018-05-06T02:59:34.203Z,28.41
2018-05-06T03:00:35.233Z,27.73
2018-05-06T03:01:34.171Z,26.96
2018-05-06T03:02:34.199Z,27.26
2018-05-06T03:03:34.186Z,27.35
2018-05-06T03:04:34.627Z,25.51
2018-05-06T03:05:34.027Z,24.73
2018-05-06T03:06:34.068Z,26.96
2018-05-06T03:07:33.994Z,25.60
2018-05-06T03:08:34.044Z,25.12
2018-05-06T03:09:34.025Z,24.44
2018-05-06T03:10:33.911Z,25.21
2018-05-06T03:11:34.202Z,25.21
2018-05-06T03:12:33.922Z,25.21
2018-05-06T03:13:33.830Z,23.66
2018-05-06T03:14:33.878Z,21.82
2018-05-06T03:15:33.771Z,21.14
2018-05-06T03:16:33.965Z,21.62
2018-05-06T03:17:33.744Z,22.69
2018-05-06T03:18:33.692Z,20.07
2018-05-06T03:19:33.767Z,22.20
2018-05-06T03:20:33.761Z,22.89
2018-05-06T03:21:33.698Z,22.60
2018-05-06T03:22:33.719Z,23.47
2018-05-06T03:23:33.746Z,22.60
2018-05-06T03:24:34.541Z,21.43
2018-05-06T03:25:33.524Z,21.24
2018-05-06T03:26:34.106Z,21.04
2018-05-06T03:27:34.020Z,21.53
2018-05-06T03:28:33.446Z,21.43
2018-05-06T03:29:33.458Z,21.24
2018-05-06T03:30:33.750Z,20.17
2018-05-06T03:31:33.381Z,20.84
2018-05-06T03:32:33.421Z,20.27
2018-05-06T03:33:33.342Z,18.51
2018-05-06T03:34:33.671Z,17.06
2018-05-06T03:35:33.266Z,18.41
2018-05-06T03:36:33.338Z,17.83
2018-05-06T03:37:33.205Z,17.54
2018-05-06T03:38:33.179Z,18.13
2018-05-06T03:39:33.388Z,16.67
2018-05-06T03:40:33.387Z,16.09
2018-05-06T03:41:33.500Z,16.19
2018-05-06T03:42:33.265Z,16.19
2018-05-06T03:43:33.366Z,16.09
2018-05-06T03:44:33.223Z,16.09
2018-05-06T03:45:33.609Z,14.73
2018-05-06T03:46:33.123Z,13.76
2018-05-06T03:47:33.370Z,13.47
2018-05-06T03:48:33.044Z,13.96
2018-05-06T03:49:32.909Z,13.96
2018-05-06T03:50:32.981Z,14.06
2018-05-06T03:51:33.012Z,13.47
2018-05-06T03:52:33.124Z,12.70
2018-05-06T03:53:32.945Z,12.21
2018-05-06T03:54:33.060Z,11.91
2018-05-06T03:55:32.809Z,10.95
2018-05-06T03:56:32.754Z,10.95
2018-05-06T03:57:32.814Z,11.14
2018-05-06T03:58:32.685Z,10.66
2018-05-06T03:59:32.658Z,10.17
2018-05-06T04:00:32.658Z,8.82
2018-05-06T04:01:32.618Z,7.65
2018-05-06T04:02:32.809Z,7.36
2018-05-06T04:03:32.566Z,7.27
2018-05-06T04:04:32.543Z,5.91
2018-05-06T04:05:32.502Z,5.13
2018-05-06T04:06:32.475Z,4.94
2018-05-06T04:07:32.429Z,4.65
2018-05-06T04:08:32.544Z,5.23
2018-05-06T04:09:32.383Z,4.26
2018-05-06T04:10:32.430Z,4.55
2018-05-06T04:11:32.728Z,5.23
2018-05-06T04:12:32.312Z,5.33
2018-05-06T04:13:32.382Z,4.94
2018-05-06T04:14:32.348Z,4.55
2018-05-06T04:15:32.244Z,4.55
2018-05-06T04:16:32.250Z,4.26
2018-05-06T04:17:32.170Z,3.78
2018-05-06T04:18:32.156Z,2.81
2018-05-06T04:19:32.350Z,2.42
2018-05-06T04:20:32.207Z,2.42
2018-05-06T04:21:32.126Z,2.23
2018-05-06T04:22:32.063Z,1.35
2018-05-06T04:23:32.022Z,1.74
2018-05-06T04:24:32.355Z,0.87
2018-05-06T04:25:32.080Z,0.19
2018-05-06T04:26:31.957Z,0.00
2018-05-06T04:27:31.951Z,0.00
2018-05-06T04:28:31.955Z,0.09
2018-05-06T04:29:31.901Z,0.19
2018-05-06T04:30:31.919Z,0.48
2018-05-06T04:31:31.869Z,0.29
2018-05-06T04:32:32.013Z,0.00
2018-05-06T04:33:31.973Z,0.00
2018-05-06T04:34:32.120Z,0.09
2018-05-06T04:35:32.013Z,0.00
2018-05-06T04:36:31.685Z,0.00
2018-05-06T04:37:31.732Z,0.00
2018-05-06T04:38:31.641Z,0.00
2018-05-06T04:39:31.714Z,0.00
2018-05-06T04:40:31.852Z,0.00
2018-05-06T04:41:31.585Z,0.00
2018-05-06T04:42:31.656Z,0.00
2018-05-06T04:43:31.508Z,0.00
2018-05-06T04:44:31.478Z,0.00
2018-05-06T04:45:31.480Z,0.00
2018-05-06T04:46:31.582Z,0.00
2018-05-06T04:47:31.425Z,0.00
2018-05-06T04:48:31.372Z,0.00
2018-05-06T04:49:31.340Z,0.00
2018-05-06T04:50:31.340Z,0.00
2018-05-06T04:51:31.313Z,0.00
2018-05-06T04:52:31.377Z,0.00
2018-05-06T04:53:31.239Z,0.00
2018-05-06T04:54:31.222Z,0.00
2018-05-06T04:55:31.245Z,0.00
2018-05-06T04:56:31.168Z,0.00
2018-05-06T04:57:31.847Z,0.00
2018-05-06T04:58:31.640Z,0.00
2018-05-06T04:59:31.181Z,0.00
2018-05-06T05:00:31.261Z,0.00
2018-05-06T05:01:31.161Z,0.00
2018-05-06T05:02:31.054Z,0.00
2018-05-06T05:03:31.096Z,0.00
2018-05-06T05:04:30.974Z,0.00
2018-05-06T05:05:30.932Z,0.00
2018-05-06T05:06:30.938Z,0.00
2018-05-06T05:07:30.884Z,0.00
2018-05-06T05:08:30.952Z,0.00
2018-05-06T05:09:30.853Z,0.00
2018-05-06T05:10:30.820Z,0.00
2018-05-06T05:11:30.891Z,0.00
2018-05-06T05:12:30.864Z,0.00
2018-05-06T05:13:30.805Z,0.00
2018-05-06T05:14:30.769Z,0.00
2018-05-06T05:15:30.706Z,0.00
2018-05-06T05:16:30.666Z,0.00
2018-05-06T05:17:30.624Z,0.00
2018-05-06T05:18:30.701Z,0.00
2018-05-06T05:19:30.580Z,0.00
2018-05-06T05:20:30.825Z,0.00
2018-05-06T05:21:30.835Z,0.00
2018-05-06T05:22:30.492Z,0.00
2018-05-06T05:23:30.463Z,0.00
2018-05-06T05:24:30.620Z,0.00
2018-05-06T05:25:30.493Z,0.00
2018-05-06T05:26:30.467Z,0.00
2018-05-06T05:27:30.347Z,0.00
2018-05-06T05:28:30.343Z,0.00
2018-05-06T05:29:30.428Z,0.00
2018-05-06T05:30:30.392Z,0.00
2018-05-06T05:31:30.251Z,0.00
2018-05-06T05:32:30.244Z,0.00
2018-05-06T05:33:30.695Z,0.00
2018-05-06T05:34:30.751Z,0.00
2018-05-06T05:35:30.238Z,0.00
2018-05-06T05:36:30.147Z,0.00
2018-05-06T05:37:30.092Z,0.00
2018-05-06T05:38:30.076Z,0.00
2018-05-06T05:39:30.064Z,0.00
2018-05-06T05:40:31.408Z,0.00
2018-05-06T05:41:30.017Z,0.00
2018-05-06T05:42:29.960Z,0.00
2018-05-06T05:43:29.941Z,0.00
2018-05-06T05:44:29.948Z,0.00
2018-05-06T05:45:29.882Z,0.00
2018-05-06T05:46:29.991Z,0.00
2018-05-06T05:47:29.839Z,0.00
2018-05-06T05:48:29.801Z,0.00
2018-05-06T05:49:29.783Z,0.00
2018-05-06T05:50:29.774Z,0.00
2018-05-06T05:51:29.768Z,0.00
2018-05-06T05:52:29.765Z,0.00
2018-05-06T05:53:29.668Z,0.00
2018-05-06T05:54:30.239Z,0.00
2018-05-06T05:55:29.660Z,0.00
2018-05-06T05:56:29.619Z,0.00
2018-05-06T05:57:29.700Z,0.00
2018-05-06T05:58:29.661Z,0.00
2018-05-06T05:59:29.536Z,0.00
2018-05-06T06:00:29.501Z,0.00
2018-05-06T06:01:29.536Z,0.00
2018-05-06T06:02:29.475Z,0.00
2018-05-06T06:03:29.573Z,0.00
2018-05-06T06:04:29.393Z,0.00
2018-05-06T06:05:29.423Z,0.00
2018-05-06T06:06:29.306Z,0.00
2018-05-06T06:07:29.306Z,0.00
2018-05-06T06:08:29.538Z,0.00
2018-05-06T06:09:29.291Z,0.00
2018-05-06T06:10:29.208Z,0.00
2018-05-06T06:11:29.214Z,0.00
2018-05-06T06:12:29.165Z,0.00
2018-05-06T06:13:29.393Z,0.00
2018-05-06T06:14:29.113Z,0.00
2018-05-06T06:15:29.093Z,0.00
2018-05-06T06:16:29.057Z,0.00
2018-05-06T06:17:29.048Z,0.00
2018-05-06T06:18:29.105Z,0.00
2018-05-06T06:19:28.995Z,0.00
2018-05-06T06:20:28.956Z,0.00
2018-05-06T06:21:28.919Z,0.00
2018-05-06T06:22:29.020Z,0.00
2018-05-06T06:23:28.970Z,0.00
2018-05-06T06:24:28.937Z,0.00
2018-05-06T06:25:28.830Z,0.00
2018-05-06T06:26:28.868Z,0.00
2018-05-06T06:27:28.942Z,0.00
2018-05-06T06:28:28.859Z,0.00
2018-05-06T06:29:28.772Z,0.00
2018-05-06T06:30:28.742Z,0.00
2018-05-06T06:31:28.688Z,0.00
2018-05-06T06:32:28.669Z,0.00
2018-05-06T06:33:28.806Z,0.00
2018-05-06T06:34:28.669Z,0.00
2018-05-06T06:35:28.557Z,0.00
2018-05-06T06:36:28.530Z,0.00
2018-05-06T06:37:28.505Z,0.00
2018-05-06T06:38:28.571Z,0.00
2018-05-06T06:39:28.452Z,0.00
2018-05-06T06:40:28.540Z,0.00
2018-05-06T06:41:28.386Z,0.00
2018-05-06T06:42:28.382Z,0.00
2018-05-06T06:43:28.352Z,0.00
2018-05-06T06:44:28.333Z,0.00
2018-05-06T06:45:28.332Z,0.00
2018-05-06T06:46:28.248Z,0.00
2018-05-06T06:47:28.256Z,0.00
2018-05-06T06:48:28.349Z,0.00
2018-05-06T06:49:28.166Z,0.00
2018-05-06T06:50:28.256Z,0.00
2018-05-06T06:51:28.153Z,0.00
2018-05-06T06:52:28.113Z,0.00
2018-05-06T06:53:28.073Z,0.00
2018-05-06T06:54:28.050Z,0.00
2018-05-06T06:55:28.121Z,0.00
2018-05-06T06:56:28.068Z,0.00
2018-05-06T06:57:27.976Z,0.00
2018-05-06T06:58:27.940Z,0.00
2018-05-06T06:59:27.905Z,0.00
2018-05-06T07:00:28.272Z,0.00
2018-05-06T07:01:27.849Z,0.00
2018-05-06T07:02:27.846Z,0.00
2018-05-06T07:03:28.199Z,0.00
2018-05-06T07:04:27.775Z,0.00
2018-05-06T07:05:27.883Z,0.00
2018-05-06T07:06:27.736Z,0.00
2018-05-06T07:07:27.700Z,0.00
2018-05-06T07:08:27.662Z,0.00
2018-05-06T07:09:27.668Z,0.00
2018-05-06T07:10:27.628Z,0.00
2018-05-06T07:11:27.681Z,0.00
2018-05-06T07:12:27.637Z,0.00
2018-05-06T07:13:27.534Z,0.00
2018-05-06T07:14:27.509Z,0.00
2018-05-06T07:15:27.492Z,0.00
2018-05-06T07:16:27.465Z,0.00
2018-05-06T07:17:27.528Z,0.00
2018-05-06T07:18:27.519Z,0.00
2018-05-06T07:19:27.497Z,0.00
2018-05-06T07:20:27.334Z,0.00
2018-05-06T07:21:27.315Z,0.00
2018-05-06T07:22:27.284Z,0.00
2018-05-06T07:23:27.379Z,0.00
2018-05-06T07:24:27.241Z,0.00
2018-05-06T07:25:27.341Z,0.00
2018-05-06T07:26:27.191Z,0.00
2018-05-06T07:27:27.199Z,0.00
2018-05-06T07:28:27.232Z,0.00
2018-05-06T07:29:27.096Z,0.00
2018-05-06T07:30:27.092Z,0.00
2018-05-06T07:31:27.061Z,0.00
2018-05-06T07:32:27.040Z,0.00
2018-05-06T07:33:27.282Z,0.00
2018-05-06T07:34:26.962Z,0.00
2018-05-06T07:35:26.947Z,0.00
2018-05-06T07:36:26.979Z,0.00
2018-05-06T07:37:26.877Z,0.00
2018-05-06T07:38:26.951Z,0.00
2018-05-06T07:39:27.028Z,0.00
2018-05-06T07:40:26.825Z,0.00
2018-05-06T07:41:26.773Z,0.00
2018-05-06T07:42:26.766Z,0.00
2018-05-06T07:43:26.784Z,0.00
2018-05-06T07:44:26.805Z,0.00
2018-05-06T07:45:26.658Z,0.00
2018-05-06T07:46:26.780Z,0.00
2018-05-06T07:47:26.636Z,0.00
2018-05-06T07:48:26.596Z,0.00
2018-05-06T07:49:26.655Z,0.00
2018-05-06T07:50:26.540Z,0.00
2018-05-06T07:51:26.516Z,0.00
2018-05-06T07:52:26.479Z,0.00
2018-05-06T07:53:26.474Z,0.00
2018-05-06T07:54:26.443Z,0.00
2018-05-06T07:55:26.548Z,0.00
2018-05-06T07:56:26.379Z,0.00
2018-05-06T07:57:26.349Z,0.00
2018-05-06T07:58:26.335Z,0.00
2018-05-06T07:59:26.320Z,0.00
2018-05-06T08:00:26.273Z,0.00
2018-05-06T08:01:26.341Z,0.00
2018-05-06T08:02:26.220Z,0.00
2018-05-06T08:03:26.195Z,0.00
2018-05-06T08:04:26.204Z,0.00
2018-05-06T08:05:26.204Z,0.00
2018-05-06T08:06:26.390Z,0.00
2018-05-06T08:07:26.091Z,0.00
2018-05-06T08:08:26.051Z,0.00
2018-05-06T08:09:26.041Z,0.00
2018-05-06T08:10:26.012Z,0.00
2018-05-06T08:11:26.072Z,0.00
2018-05-06T08:12:25.959Z,0.00
2018-05-06T08:13:25.943Z,0.00
2018-05-06T08:14:25.876Z,0.00
2018-05-06T08:15:25.857Z,0.00
2018-05-06T08:16:25.998Z,0.00
2018-05-06T08:17:25.904Z,0.00
2018-05-06T08:18:25.783Z,0.00
2018-05-06T08:19:25.754Z,0.00
2018-05-06T08:20:25.719Z,0.00
2018-05-06T08:21:25.688Z,0.00
2018-05-06T08:22:25.681Z,0.00
2018-05-06T08:23:25.754Z,0.00
2018-05-06T08:24:25.609Z,0.00
2018-05-06T08:25:25.580Z,0.00
2018-05-06T08:26:25.575Z,0.00
2018-05-06T08:27:25.583Z,0.00
2018-05-06T08:28:25.626Z,0.00
2018-05-06T08:29:25.480Z,0.00
2018-05-06T08:30:25.456Z,0.00
2018-05-06T08:31:25.430Z,0.00
2018-05-06T08:32:25.391Z,0.00
2018-05-06T08:33:25.387Z,0.00
2018-05-06T08:34:25.465Z,0.00
2018-05-06T08:35:25.313Z,0.00
2018-05-06T08:36:25.292Z,0.00
2018-05-06T08:37:25.267Z,0.00
2018-05-06T08:38:25.234Z,0.00
2018-05-06T08:39:25.318Z,0.00
2018-05-06T08:40:25.191Z,0.00
2018-05-06T08:41:25.155Z,0.00
2018-05-06T08:42:25.148Z,0.00
2018-05-06T08:43:25.094Z,0.00
2018-05-06T08:44:25.181Z,0.00
2018-05-06T08:45:25.044Z,0.00
2018-05-06T08:46:25.020Z,0.00
2018-05-06T08:47:25.017Z,0.00
2018-05-06T08:48:24.988Z,0.00
2018-05-06T08:49:25.040Z,0.00
2018-05-06T08:50:24.929Z,0.00
2018-05-06T08:51:24.891Z,0.00
2018-05-06T08:52:24.862Z,0.00
2018-05-06T08:53:24.851Z,0.00
2018-05-06T08:54:24.918Z,0.00
2018-05-06T08:55:24.881Z,0.00
2018-05-06T08:56:24.746Z,0.00
2018-05-06T08:57:24.735Z,0.00
2018-05-06T08:58:24.703Z,0.00
2018-05-06T08:59:24.667Z,0.00
2018-05-06T09:00:24.752Z,0.00
2018-05-06T09:01:24.606Z,0.00
2018-05-06T09:02:24.603Z,0.00
2018-05-06T09:03:24.559Z,0.00
2018-05-06T09:04:24.552Z,0.00
2018-05-06T09:05:24.555Z,0.00
2018-05-06T09:06:24.479Z,0.00
2018-05-06T09:07:24.456Z,0.00
2018-05-06T09:08:24.429Z,0.00
2018-05-06T09:09:24.390Z,0.00
2018-05-06T09:10:24.380Z,0.00
2018-05-06T09:11:24.395Z,0.00
2018-05-06T09:12:24.311Z,0.00
2018-05-06T09:13:24.307Z,0.00
2018-05-06T09:14:24.276Z,0.00
2018-05-06T09:15:24.243Z,0.00
2018-05-06T09:16:24.302Z,0.00
2018-05-06T09:17:24.203Z,0.00
2018-05-06T09:18:24.161Z,0.00
2018-05-06T09:19:24.136Z,0.00
2018-05-06T09:20:24.098Z,0.00
2018-05-06T09:21:24.178Z,0.00
2018-05-06T09:22:24.052Z,0.00
2018-05-06T09:23:24.029Z,0.00
2018-05-06T09:24:23.993Z,0.00
2018-05-06T09:25:24.013Z,0.00
2018-05-06T09:26:23.959Z,0.00
2018-05-06T09:27:24.008Z,0.00
2018-05-06T09:28:23.896Z,0.00
2018-05-06T09:29:23.869Z,0.00
2018-05-06T09:30:23.877Z,0.00
2018-05-06T09:31:23.821Z,0.00
2018-05-06T09:32:23.869Z,0.00
2018-05-06T09:33:23.755Z,0.00
2018-05-06T09:34:23.722Z,0.00
2018-05-06T09:35:23.690Z,0.00
2018-05-06T09:36:23.665Z,0.00
2018-05-06T09:37:23.721Z,0.00
2018-05-06T09:38:23.611Z,0.00
2018-05-06T09:39:23.592Z,0.00
2018-05-06T09:40:23.546Z,0.00
2018-05-06T09:41:23.542Z,0.00
2018-05-06T09:42:23.602Z,0.00
2018-05-06T09:43:23.467Z,0.00
2018-05-06T09:44:23.449Z,0.00
2018-05-06T09:45:23.442Z,0.00
2018-05-06T09:46:23.416Z,0.00
2018-05-06T09:47:23.357Z,0.00
2018-05-06T09:48:23.444Z,0.00
2018-05-06T09:49:23.314Z,0.00
2018-05-06T09:50:23.310Z,0.00
2018-05-06T09:51:23.273Z,0.00
2018-05-06T09:52:23.231Z,0.00
2018-05-06T09:53:23.321Z,0.00
2018-05-06T09:54:23.169Z,0.00
2018-05-06T09:55:23.146Z,0.00
2018-05-06T09:56:23.110Z,0.00
2018-05-06T09:57:23.108Z,0.00
2018-05-06T09:58:23.071Z,0.00
2018-05-06T09:59:23.167Z,0.00
2018-05-06T10:00:23.023Z,0.00
2018-05-06T10:01:22.988Z,0.00
2018-05-06T10:02:22.976Z,0.00
2018-05-06T10:03:22.931Z,0.00
2018-05-06T10:04:23.025Z,0.00
2018-05-06T10:05:22.917Z,0.00
2018-05-06T10:06:22.852Z,0.00
2018-05-06T10:07:22.831Z,0.00
2018-05-06T10:08:22.843Z,0.00
2018-05-06T10:09:22.864Z,0.00
2018-05-06T10:10:22.739Z,0.00
2018-05-06T10:11:22.710Z,0.00
2018-05-06T10:12:22.692Z,0.00
2018-05-06T10:13:22.669Z,0.00
2018-05-06T10:14:22.740Z,0.00
2018-05-06T10:15:22.611Z,0.00
2018-05-06T10:16:22.594Z,0.00
2018-05-06T10:17:22.598Z,0.00
2018-05-06T10:18:22.518Z,0.00
2018-05-06T10:19:22.551Z,0.00
2018-05-06T10:20:22.499Z,0.00
2018-05-06T10:21:22.442Z,0.00
2018-05-06T10:22:22.459Z,0.00
2018-05-06T10:23:22.393Z,0.00
2018-05-06T10:24:22.379Z,0.00
2018-05-06T10:25:22.409Z,0.00
2018-05-06T10:26:22.297Z,0.00
2018-05-06T10:27:22.275Z,0.00
2018-05-06T10:28:22.269Z,0.00
2018-05-06T10:29:22.228Z,0.00
2018-05-06T10:30:22.277Z,0.00
2018-05-06T10:33:19.815Z,0.00
2018-05-06T10:34:19.718Z,0.00
2018-05-06T10:35:19.693Z,0.00
2018-05-06T10:36:19.704Z,0.00
2018-05-06T10:37:19.628Z,0.00
2018-05-06T10:38:19.646Z,0.00
2018-05-06T10:39:19.593Z,0.00
2018-05-06T10:40:19.559Z,0.00
2018-05-06T10:41:19.637Z,0.00
2018-05-06T10:42:19.577Z,0.00
2018-05-06T10:43:19.478Z,0.00
2018-05-06T10:44:19.553Z,0.00
2018-05-06T10:45:19.412Z,0.00
2018-05-06T10:46:19.388Z,0.00
2018-05-06T10:47:19.451Z,0.00
2018-05-06T10:48:19.341Z,0.00
2018-05-06T10:49:19.592Z,0.00
2018-05-06T10:50:19.301Z,0.00
2018-05-06T10:51:19.250Z,0.00
2018-05-06T10:52:19.231Z,0.00
2018-05-06T10:53:19.296Z,0.00
2018-05-06T10:54:19.177Z,0.00
2018-05-06T10:55:19.134Z,0.00
2018-05-06T10:56:19.120Z,0.00
2018-05-06T10:57:19.107Z,0.00
2018-05-06T10:58:19.087Z,0.00
2018-05-06T10:59:19.137Z,0.00
2018-05-06T11:00:19.030Z,0.00
2018-05-06T11:01:18.977Z,0.00
2018-05-06T11:02:18.953Z,0.00
2018-05-06T11:03:18.926Z,0.00
2018-05-06T11:04:19.005Z,0.00
2018-05-06T11:05:18.883Z,0.00
2018-05-06T11:06:18.890Z,0.00
2018-05-06T11:07:18.825Z,0.00
2018-05-06T11:08:18.804Z,0.00
2018-05-06T11:09:18.863Z,0.00
2018-05-06T11:10:18.838Z,0.00
2018-05-06T11:11:18.714Z,0.00
2018-05-06T11:12:18.705Z,0.00
2018-05-06T11:13:18.655Z,0.00
2018-05-06T11:14:18.729Z,0.00
2018-05-06T11:15:18.600Z,0.00
2018-05-06T11:16:18.569Z,0.00
2018-05-06T11:17:18.556Z,0.00
2018-05-06T11:18:18.519Z,0.00
2018-05-06T11:19:18.507Z,0.00
2018-05-06T11:20:18.526Z,0.00
2018-05-06T11:21:18.434Z,0.00
2018-05-06T11:22:18.420Z,0.00
2018-05-06T11:23:18.386Z,0.00
2018-05-06T11:24:18.361Z,0.00
2018-05-06T11:25:18.336Z,0.00
2018-05-06T11:26:18.393Z,0.00
2018-05-06T11:27:18.298Z,0.00
2018-05-06T11:28:18.258Z,0.00
2018-05-06T11:29:18.237Z,0.00
2018-05-06T11:30:18.193Z,0.00
2018-05-06T11:31:18.244Z,0.00
2018-05-06T11:32:18.232Z,0.00
2018-05-06T11:33:18.186Z,0.00
2018-05-06T11:34:18.085Z,0.00
2018-05-06T11:35:18.055Z,0.00
2018-05-06T11:36:18.062Z,0.00
2018-05-06T11:37:18.111Z,0.00
2018-05-06T11:38:17.990Z,0.00
2018-05-06T11:39:17.961Z,0.00
2018-05-06T11:40:17.932Z,0.00
2018-05-06T11:41:17.911Z,0.00
2018-05-06T11:42:17.966Z,0.00
2018-05-06T11:43:17.861Z,0.00
2018-05-06T11:44:17.806Z,0.00
2018-05-06T11:45:17.807Z,0.00
2018-05-06T11:46:17.781Z,0.00
2018-05-06T11:47:17.834Z,0.00
2018-05-06T11:48:17.696Z,0.00
2018-05-06T11:49:17.711Z,0.00
2018-05-06T11:50:17.647Z,0.00
2018-05-06T11:51:17.627Z,0.00
2018-05-06T11:52:17.654Z,0.00
2018-05-06T11:53:17.599Z,0.00
2018-05-06T11:54:17.547Z,0.00
2018-05-06T11:55:17.526Z,0.00
2018-05-06T11:56:17.563Z,0.00
2018-05-06T11:57:17.483Z,0.00
2018-05-06T11:58:17.561Z,0.00
2018-05-06T11:59:17.424Z,0.00
2018-05-06T12:00:17.380Z,0.00
2018-05-06T12:01:17.373Z,0.00
2018-05-06T12:02:17.374Z,0.00
2018-05-06T12:03:17.318Z,0.00
2018-05-06T12:04:17.390Z,0.00
2018-05-06T12:05:17.247Z,0.00
2018-05-06T12:06:17.228Z,0.00
2018-05-06T12:07:17.197Z,0.00
2018-05-06T12:08:17.167Z,0.00
2018-05-06T12:09:17.273Z,0.00
2018-05-06T12:10:17.135Z,0.00
2018-05-06T12:11:17.093Z,0.00
2018-05-06T12:12:17.076Z,0.00
2018-05-06T12:13:17.072Z,0.00
2018-05-06T12:14:17.121Z,0.00
2018-05-06T12:15:16.989Z,0.00
2018-05-06T12:16:16.968Z,0.00
2018-05-06T12:17:16.956Z,0.00
2018-05-06T12:18:16.920Z,0.00
2018-05-06T12:19:16.923Z,0.00
2018-05-06T12:20:16.845Z,0.00
2018-05-06T12:21:16.815Z,0.00
2018-05-06T12:22:16.807Z,0.00
2018-05-06T12:23:16.776Z,0.00
2018-05-06T12:24:16.851Z,0.00
2018-05-06T12:25:16.745Z,0.00
2018-05-06T12:26:16.685Z,0.87
2018-05-06T12:27:16.677Z,0.68
2018-05-06T12:28:16.680Z,0.00
2018-05-06T12:29:16.770Z,0.00
2018-05-06T12:30:16.584Z,0.87
2018-05-06T12:31:16.547Z,1.84
2018-05-06T12:32:16.542Z,2.03
2018-05-06T12:33:16.496Z,2.33
2018-05-06T12:34:16.490Z,2.33
2018-05-06T12:35:16.556Z,1.74
2018-05-06T12:36:16.505Z,2.51
2018-05-06T12:37:16.402Z,2.91
2018-05-06T12:38:16.419Z,2.33
2018-05-06T12:39:16.949Z,3.00
2018-05-06T12:40:16.900Z,3.30
2018-05-06T12:41:16.403Z,7.76
2018-05-06T12:42:16.293Z,16.49
2018-05-06T12:43:16.324Z,20.85
2018-05-06T12:44:16.222Z,16.87
2018-05-06T12:45:16.198Z,17.27
2018-05-06T12:46:16.282Z,19.50
2018-05-06T12:47:16.255Z,20.67
2018-05-06T12:48:16.157Z,20.57
2018-05-06T12:49:16.200Z,22.23
2018-05-06T12:50:16.077Z,28.74
2018-05-06T12:51:16.189Z,31.45
2018-05-06T12:52:16.019Z,32.34
2018-05-06T12:53:16.003Z,40.81
2018-05-06T12:54:15.992Z,45.97
2018-05-06T12:55:15.968Z,55.78
2018-05-06T12:56:15.945Z,61.41
2018-05-06T12:57:15.950Z,70.68
2018-05-06T12:58:15.898Z,75.25
2018-05-06T12:59:15.861Z,78.59
2018-05-06T13:00:15.817Z,84.33
2018-05-06T13:01:16.252Z,84.96
2018-05-06T13:02:15.763Z,83.11
2018-05-06T13:03:15.722Z,78.44
2018-05-06T13:04:15.744Z,84.05
2018-05-06T13:05:15.681Z,84.28
2018-05-06T13:06:15.705Z,83.17
2018-05-06T13:07:15.630Z,82.29
2018-05-06T13:08:15.590Z,82.92
2018-05-06T13:09:15.588Z,82.43
2018-05-06T13:10:15.604Z,82.86
2018-05-06T13:11:15.571Z,85.19